createdAt,value
2022-10-22T00:02:22.375Z,16.50
2022-10-22T00:07:28.300Z,21.58
2022-10-22T00:12:28.520Z,24.57
2022-10-22T00:17:29.544Z,19.60
2022-10-22T00:22:28.848Z,17.15
2022-10-22T00:27:28.406Z,16.52
2022-10-22T00:32:26.127Z,16.92
2022-10-22T00:37:23.601Z,21.98
2022-10-22T00:42:24.101Z,19.65
2022-10-22T00:47:35.556Z,15.00
2022-10-22T00:52:35.446Z,12.85
2022-10-22T00:57:35.683Z,13.85
2022-10-22T01:02:37.983Z,13.38
2022-10-22T01:07:43.526Z,10.30
2022-10-22T01:13:09.728Z,11.23
2022-10-22T01:18:15.287Z,8.55
2022-10-22T01:23:51.617Z,17.20
2022-10-22T01:28:55.749Z,8.18
2022-10-22T01:33:54.899Z,10.40
2022-10-22T01:38:54.167Z,10.57
2022-10-22T01:43:54.654Z,8.80
2022-10-22T01:49:03.591Z,11.75
2022-10-22T01:54:14.459Z,12.82
2022-10-22T01:59:36.170Z,18.00
2022-10-22T02:04:54.929Z,14.27
2022-10-22T02:09:58.327Z,16.15
2022-10-22T02:14:58.769Z,16.67
2022-10-22T02:20:02.937Z,16.08
2022-10-22T02:25:01.196Z,18.30
2022-10-22T02:30:05.840Z,11.00
2022-10-22T02:35:04.657Z,7.55
2022-10-22T02:40:02.568Z,9.70
2022-10-22T02:45:05.058Z,7.85
2022-10-22T02:50:05.479Z,7.95
2022-10-22T02:55:06.802Z,6.20
2022-10-22T03:00:08.269Z,6.53
2022-10-22T03:05:08.469Z,8.13
2022-10-22T03:10:08.290Z,4.20
2022-10-22T03:15:09.879Z,4.20
2022-10-22T03:20:08.715Z,8.02
2022-10-22T03:25:08.619Z,5.85
2022-10-22T03:30:11.556Z,4.25
2022-10-22T03:35:13.044Z,10.15
2022-10-22T03:40:12.425Z,4.80
2022-10-22T03:45:11.417Z,7.13
2022-10-22T03:50:10.872Z,5.78
2022-10-22T03:55:09.930Z,6.18
2022-10-22T04:00:08.837Z,4.30
2022-10-22T04:05:09.349Z,4.88
2022-10-22T04:10:09.002Z,6.47
2022-10-22T04:15:07.895Z,4.47
2022-10-22T04:20:06.128Z,5.60
2022-10-22T04:25:08.502Z,11.35
2022-10-22T04:30:09.226Z,11.30
2022-10-22T04:35:11.292Z,7.85
2022-10-22T04:40:10.979Z,5.72
2022-10-22T04:45:10.172Z,6.22
2022-10-22T04:50:15.673Z,6.28
2022-10-22T04:55:25.811Z,5.90
2022-10-22T05:00:23.783Z,9.23
2022-10-22T05:05:24.535Z,6.80
2022-10-22T05:10:25.576Z,14.80
2022-10-22T05:15:24.252Z,7.35
2022-10-22T05:20:25.788Z,6.70
2022-10-22T05:25:25.842Z,9.88
2022-10-22T05:30:27.862Z,9.27
2022-10-22T05:35:28.935Z,12.85
2022-10-22T05:40:31.150Z,15.80
2022-10-22T05:45:40.389Z,15.93
2022-10-22T05:50:42.065Z,7.35
2022-10-22T05:55:41.202Z,7.55
2022-10-22T06:00:42.693Z,10.65
2022-10-22T06:05:43.370Z,11.63
2022-10-22T06:10:45.596Z,15.40
2022-10-22T06:15:44.087Z,10.93
2022-10-22T06:20:52.544Z,6.53
2022-10-22T06:26:02.581Z,16.02
2022-10-22T06:31:02.493Z,10.68
2022-10-22T06:36:09.183Z,6.20
2022-10-22T06:41:16.537Z,24.58
2022-10-22T06:46:19.970Z,12.20
2022-10-22T06:51:28.573Z,10.90
2022-10-22T06:56:29.739Z,8.10
2022-10-22T07:01:34.756Z,5.18
2022-10-22T07:06:36.277Z,12.00
2022-10-22T07:11:40.997Z,14.20
2022-10-22T07:16:45.771Z,21.83
2022-10-22T07:21:45.574Z,21.45
2022-10-22T07:26:47.151Z,32.08
2022-10-22T07:31:46.785Z,44.80
2022-10-22T07:36:46.445Z,47.35
2022-10-22T07:41:46.624Z,37.20
2022-10-22T07:46:49.091Z,22.10
2022-10-22T07:52:13.239Z,8.48
2022-10-22T07:57:10.849Z,6.20
2022-10-22T08:02:17.183Z,9.00
2022-10-22T08:07:19.256Z,8.45
2022-10-22T08:12:17.918Z,5.80
2022-10-22T08:17:17.646Z,5.00
2022-10-22T08:22:18.505Z,7.30
2022-10-22T08:32:49.320Z,5.30
2022-10-22T08:37:52.906Z,5.63
2022-10-22T08:48:59.431Z,12.90
2022-10-22T08:54:36.206Z,8.02
2022-10-22T08:59:48.905Z,16.65
2022-10-22T09:04:59.347Z,8.30
2022-10-22T09:09:59.939Z,13.70
2022-10-22T09:15:00.785Z,10.30
2022-10-22T09:20:26.473Z,8.20
2022-10-22T09:25:27.809Z,7.35
2022-10-22T09:30:38.014Z,6.57
2022-10-22T09:35:54.112Z,8.00
2022-10-22T09:40:53.769Z,10.52
2022-10-22T09:46:06.659Z,5.72
2022-10-22T09:51:23.700Z,8.20
2022-10-22T09:56:31.161Z,14.00
2022-10-22T10:01:33.623Z,8.98
2022-10-22T10:06:35.686Z,9.48
2022-10-22T10:11:40.204Z,7.20
2022-10-22T10:17:01.243Z,5.72
2022-10-22T10:22:43.301Z,9.85
2022-10-22T10:27:51.588Z,6.93
2022-10-22T10:33:27.752Z,7.47
2022-10-22T10:38:32.027Z,13.13
2022-10-22T10:43:38.602Z,8.02
2022-10-22T10:48:49.223Z,9.00
2022-10-22T10:54:21.701Z,4.97
2022-10-22T10:59:50.898Z,6.00
2022-10-22T11:05:03.843Z,8.00
2022-10-22T11:10:31.739Z,5.30
2022-10-22T11:16:34.000Z,6.32
2022-10-22T11:21:54.136Z,9.02
2022-10-22T11:27:03.063Z,6.07
2022-10-22T11:32:06.779Z,5.57
2022-10-22T11:42:23.265Z,5.45
2022-10-22T11:47:53.960Z,8.27
2022-10-22T11:53:02.823Z,5.68
2022-10-22T11:58:03.064Z,7.55
2022-10-22T12:03:35.513Z,8.10
2022-10-22T12:08:43.618Z,6.10
2022-10-22T12:14:05.039Z,5.80
2022-10-22T12:19:34.295Z,6.05
2022-10-22T12:24:35.700Z,13.05
2022-10-22T12:29:35.358Z,7.28
2022-10-22T12:39:56.422Z,9.55
2022-10-22T12:44:58.771Z,5.47
2022-10-22T12:49:57.409Z,5.63
2022-10-22T12:54:58.089Z,11.32
2022-10-22T12:59:56.315Z,9.15
2022-10-22T13:05:28.201Z,9.63
2022-10-22T13:10:32.229Z,11.80
2022-10-22T13:15:35.754Z,6.00
2022-10-22T13:20:38.804Z,5.32
2022-10-22T13:25:44.464Z,9.05
2022-10-22T13:31:03.651Z,9.30
2022-10-22T13:36:04.254Z,11.35
2022-10-22T13:41:24.927Z,7.43
2022-10-22T13:46:25.620Z,6.28
2022-10-22T13:51:41.224Z,6.75
2022-10-22T13:56:49.270Z,9.30
2022-10-22T14:01:51.281Z,13.32
2022-10-22T14:06:53.057Z,9.10
2022-10-22T14:11:52.872Z,9.75
2022-10-22T14:17:01.091Z,9.98
2022-10-22T14:22:15.151Z,5.07
2022-10-22T14:27:15.005Z,11.18
2022-10-22T14:32:23.320Z,5.20
2022-10-22T14:37:27.058Z,10.82
2022-10-22T14:42:28.396Z,9.32
2022-10-22T14:47:33.753Z,6.60
2022-10-22T14:52:32.676Z,9.27
2022-10-22T14:57:30.971Z,7.22
2022-10-22T15:02:31.969Z,10.57
2022-10-22T15:07:31.346Z,6.35
2022-10-22T15:12:32.212Z,5.70
2022-10-22T15:17:36.513Z,14.23
2022-10-22T15:22:35.739Z,9.10
2022-10-22T15:27:38.272Z,7.47
2022-10-22T15:32:48.845Z,8.98
2022-10-22T15:37:51.031Z,10.43
2022-10-22T15:42:52.450Z,32.45
2022-10-22T15:47:53.536Z,15.20
2022-10-22T15:52:54.806Z,16.80
2022-10-22T15:57:57.970Z,18.35
2022-10-22T16:03:04.879Z,13.40
2022-10-22T16:08:10.167Z,29.45
2022-10-22T16:13:09.035Z,28.67
2022-10-22T16:18:18.910Z,28.63
2022-10-22T16:23:24.719Z,23.73
2022-10-22T16:28:25.571Z,36.15
2022-10-22T16:33:27.006Z,34.15
2022-10-22T16:38:26.487Z,30.92
2022-10-22T16:43:26.220Z,35.72
2022-10-22T16:48:24.589Z,33.72
2022-10-22T16:53:26.988Z,38.17
2022-10-22T16:58:28.468Z,34.55
2022-10-22T17:03:32.848Z,36.92
2022-10-22T17:08:41.637Z,42.38
2022-10-22T17:14:02.562Z,40.83
2022-10-22T17:19:04.336Z,40.35
2022-10-22T17:24:07.851Z,44.80
2022-10-22T17:29:08.570Z,28.98
2022-10-22T17:34:16.068Z,27.75
2022-10-22T17:39:19.917Z,24.27
2022-10-22T17:44:21.481Z,28.90
2022-10-22T17:49:21.207Z,21.48
2022-10-22T17:54:21.038Z,28.38
2022-10-22T17:59:20.099Z,22.98
2022-10-22T18:04:23.149Z,19.90
2022-10-22T18:09:27.219Z,24.08
2022-10-22T18:14:28.622Z,28.65
2022-10-22T18:19:50.168Z,23.67
2022-10-22T18:30:20.858Z,24.50
2022-10-22T18:35:21.000Z,26.92
2022-10-22T18:40:21.414Z,26.65
2022-10-22T18:45:20.467Z,23.30
2022-10-22T18:50:23.534Z,17.67
2022-10-22T18:55:22.606Z,27.27
2022-10-22T19:00:26.624Z,20.40
2022-10-22T19:05:25.639Z,25.58
2022-10-22T19:10:24.324Z,24.23
2022-10-22T19:20:36.515Z,29.25
2022-10-22T19:25:38.900Z,19.77
2022-10-22T19:30:36.233Z,24.88
2022-10-22T19:35:37.450Z,22.38
2022-10-22T19:40:37.874Z,26.83
2022-10-22T19:45:41.047Z,21.73
2022-10-22T19:50:39.804Z,29.10
2022-10-22T19:55:47.171Z,21.17
2022-10-22T20:00:55.414Z,17.75
2022-10-22T20:05:55.723Z,22.77
2022-10-22T20:10:57.860Z,20.50
2022-10-22T20:16:02.121Z,19.85
2022-10-22T20:21:33.653Z,20.00
2022-10-22T20:26:50.612Z,26.23
2022-10-22T20:31:52.260Z,18.38
2022-10-22T20:37:14.315Z,19.07
2022-10-22T20:42:15.740Z,13.85
2022-10-22T20:48:02.075Z,28.02
2022-10-22T20:59:19.041Z,12.93
2022-10-22T21:04:20.035Z,16.00
2022-10-22T21:09:37.355Z,16.33
2022-10-22T21:14:46.391Z,14.80
2022-10-22T21:19:53.076Z,21.60
2022-10-22T21:24:51.619Z,18.00
2022-10-22T21:30:03.339Z,12.93
2022-10-22T21:35:04.617Z,18.05
2022-10-22T21:40:07.006Z,14.55
2022-10-22T21:45:13.551Z,14.38
2022-10-22T21:50:20.724Z,17.20
2022-10-22T21:55:23.466Z,21.08
2022-10-22T22:00:32.594Z,17.30
2022-10-22T22:05:45.307Z,20.13
2022-10-22T22:17:36.543Z,16.58
2022-10-22T22:22:35.000Z,17.20
2022-10-22T22:27:41.119Z,16.27
2022-10-22T22:32:42.669Z,16.92
2022-10-22T22:37:45.613Z,15.35
2022-10-22T22:42:47.523Z,13.73
2022-10-22T22:47:51.447Z,18.27
2022-10-22T22:57:51.817Z,21.20
2022-10-22T23:02:54.647Z,11.80
2022-10-22T23:07:58.386Z,13.95
2022-10-22T23:12:56.729Z,18.70
2022-10-22T23:17:55.643Z,18.90
2022-10-22T23:22:52.957Z,12.73
2022-10-22T23:27:54.288Z,16.10
2022-10-22T23:32:55.775Z,13.80
2022-10-22T23:37:55.321Z,13.93
2022-10-22T23:42:55.935Z,14.93
2022-10-22T23:47:56.792Z,14.38
2022-10-22T23:52:54.220Z,13.52
2022-10-22T23:57:54.109Z,18.20
